Česky Dansk Deutsch English Español Suomi Français Magyar Italiano Nederlands norsk Polski Português svenska Türkçe

 

Het Weer

Nancy / Ochey (Frankrijk)

22:00, 31 juli 2016 (GMT)

NWNNE
WE
SWSSE
Home            
Nancy / Ochey Nancy / Essey Toul / Rosieres Metz-Nancy-Lorraine Metz / Frescaty St-Dizier Luxeuil Saarbruecken / Ensheim Luxembourg / Luxembourg Suippes Range Met Strasbourg Belfort Zweibrucken, Rheinland-Pfalz Colmar Chalons-Vatry Chatillon-Sur-Seine Lahr, CAN-AFB Troyes Besancon Ramstein Bertrix Bel-Afb Karlsruhe, Baden Wurttemberg Bale-Mulhouse

Om een weerknop op uw website of weblog te plaatsen, copieer onderstaande code en plak die in uw pagina. In het eerste vakje staat HTML-code, in het tweede vakje UBB-code.


Add to Google

Details

Wind speed:1 bf, 3 kn, 1.5 m/s, 3.5 miles/h, 5.6 km/h
Wind direction:N, 350°
Visibility:Greater than 10000 m, 10 km, 32800 ft, 6.2 miles
Clouds:CAVOC
Temperature:16°C, 61°F
Dew-point:10°C, 50°F
Atmospheric pressure:1019 hPa, 764.3 mmHg, 30.09 inHg, 1.006 atm
Relative humidity:67.5 %
METAR:LFSO 312200Z AUTO 35003KT CAVOK 16/10 Q1019

Snelkoppelingen

Actuele weersinformatie van de hele wereld. Voeg locaties toe met het plus (+) symbool. Deze snelkoppelingen kunnen worden toegevoegd aan Google.

Lid van de Technetium groep

website free tracking
StatCounter NetStat W3C Validator

18-01-2022 01:37:00
astro.technetium.be money.technetium.be phote.technetium.be tafeltennistafel.technetium.be www.ligfiets.net